Time;durP1;ratioP1;P1;durP2;ratioP2;P2;SDS_P1;SDS_P2;PMS_P1;PMS_P2;Temp;Humidity;BMP_temperature;BMP_pressure;BME280_temperature;BME280_humidity;BME280_pressure;Samples;Min_cycle;Max_cycle;Signal;HPM_P1;HPM_P2
2022/03/28 00:00:26;;;;;;;2.00;1.90;;;24.70;48.60;;;;;;4974575;28;20580;-80
2022/03/28 00:02:53;;;;;;;2.03;1.87;;;24.70;48.50;;;;;;4974656;28;20838;-91
2022/03/28 00:05:19;;;;;;;1.77;1.67;;;24.70;48.50;;;;;;4974548;28;20445;-80
2022/03/28 00:07:47;;;;;;;2.37;2.27;;;24.70;48.50;;;;;;4974551;28;20963;-80
2022/03/28 00:10:15;;;;;;;2.10;2.00;;;24.70;48.50;;;;;;4974267;28;20933;-80
2022/03/28 00:12:42;;;;;;;2.23;2.03;;;24.70;48.50;;;;;;4974562;28;20529;-80
2022/03/28 00:15:10;;;;;;;2.37;2.17;;;24.70;48.50;;;;;;4974237;28;20503;-80
2022/03/28 00:17:37;;;;;;;2.50;2.37;;;24.70;48.50;;;;;;4974542;28;20445;-79
2022/03/28 00:20:04;;;;;;;2.93;2.70;;;24.70;48.50;;;;;;4974413;28;20485;-79
2022/03/28 00:22:31;;;;;;;2.30;2.13;;;24.70;48.50;;;;;;4974873;28;20441;-79
2022/03/28 00:24:59;;;;;;;2.27;2.17;;;24.70;49.10;;;;;;4974371;28;20460;-90
2022/03/28 00:27:26;;;;;;;2.43;2.27;;;24.70;48.50;;;;;;4974209;28;20445;-79
2022/03/28 00:29:53;;;;;;;2.27;2.10;;;24.80;48.60;;;;;;4974376;28;20449;-79
2022/03/28 00:35:41;;;;;;;1.97;1.87;;;24.70;48.40;;;;;;4972570;28;20460;-79
2022/03/28 00:38:09;;;;;;;2.50;2.30;;;24.70;48.60;;;;;;4974256;28;20437;-79
2022/03/28 00:40:37;;;;;;;2.37;2.27;;;24.70;48.60;;;;;;4974392;28;20606;-79
2022/03/28 00:43:06;;;;;;;2.93;2.73;;;24.70;48.60;;;;;;4974265;28;20812;-79
2022/03/28 00:45:34;;;;;;;2.30;2.10;;;24.70;48.50;;;;;;4976984;28;20449;-81
2022/03/28 00:48:01;;;;;;;2.10;2.00;;;24.70;48.50;;;;;;4977885;28;20467;-79
2022/03/28 00:50:29;;;;;;;2.33;2.23;;;24.70;48.50;;;;;;4977736;28;20453;-79
2022/03/28 00:52:57;;;;;;;2.50;2.40;;;24.70;48.50;;;;;;4977788;28;20979;-80
2022/03/28 00:55:24;;;;;;;2.40;2.30;;;24.70;48.40;;;;;;4977426;28;20453;-79
2022/03/28 00:57:53;;;;;;;2.50;2.20;;;24.70;48.50;;;;;;4977634;28;20468;-79
2022/03/28 01:00:20;;;;;;;2.10;2.00;;;24.70;48.40;;;;;;4977581;28;20477;-79
2022/03/28 01:02:47;;;;;;;2.10;2.00;;;24.70;48.50;;;;;;4977633;28;20770;-79
2022/03/28 01:05:15;;;;;;;2.10;2.00;;;24.60;48.40;;;;;;4977526;28;20481;-80
2022/03/28 01:07:42;;;;;;;2.20;2.10;;;24.70;48.50;;;;;;4977338;28;20457;-80
2022/03/28 01:10:11;;;;;;;2.20;2.10;;;24.60;48.40;;;;;;4977458;28;20453;-80
2022/03/28 01:12:42;;;;;;;2.20;2.10;;;24.60;48.40;;;;;;4977056;28;20504;-79
2022/03/28 01:15:11;;;;;;;2.10;1.90;;;24.60;48.40;;;;;;4977148;28;20905;-79
2022/03/28 01:20:26;;;;;;;2.57;2.37;;;24.80;48.50;;;;;;4977304;28;20465;-79
2022/03/28 01:22:54;;;;;;;2.07;1.97;;;24.60;48.40;;;;;;4977151;28;20453;-79
2022/03/28 01:25:23;;;;;;;2.63;2.43;;;24.60;48.40;;;;;;4977214;28;20471;-80
2022/03/28 01:27:52;;;;;;;2.30;2.17;;;24.60;48.40;;;;;;4977093;28;20445;-79
2022/03/28 01:30:19;;;;;;;1.90;1.80;;;24.60;48.40;;;;;;4976848;28;20450;-80
2022/03/28 01:32:47;;;;;;;2.50;2.40;;;24.60;48.40;;;;;;4977102;28;20446;-79
2022/03/28 01:35:14;;;;;;;2.90;2.70;;;24.60;48.40;;;;;;4976771;28;20480;-79
2022/03/28 01:37:41;;;;;;;2.50;2.40;;;24.60;48.30;;;;;;4976725;28;20933;-79
2022/03/28 01:40:12;;;;;;;2.23;2.13;;;24.60;48.30;;;;;;4976907;28;20480;-79
2022/03/28 01:42:38;;;;;;;2.53;2.33;;;24.60;48.30;;;;;;4976727;28;20840;-79
2022/03/28 01:45:06;;;;;;;3.00;2.80;;;24.60;48.30;;;;;;4976432;28;20452;-78
2022/03/28 01:47:33;;;;;;;2.83;2.63;;;24.60;48.30;;;;;;4977287;28;20458;-79
2022/03/28 01:49:59;;;;;;;2.67;2.20;;;24.60;48.30;;;;;;4976654;28;20449;-81
2022/03/28 01:52:26;;;;;;;2.60;2.40;;;24.60;48.30;;;;;;4976722;28;20449;-80
2022/03/28 01:54:53;;;;;;;2.80;2.60;;;24.60;48.30;;;;;;4976599;28;21004;-80
2022/03/28 01:57:21;;;;;;;2.70;2.50;;;24.60;48.30;;;;;;4976281;28;20445;-80
2022/03/28 01:59:48;;;;;;;2.53;2.33;;;24.60;48.30;;;;;;4976573;28;20445;-80
2022/03/28 02:02:14;;;;;;;2.73;2.53;;;24.60;48.30;;;;;;4976144;28;20489;-79
2022/03/28 02:04:41;;;;;;;2.40;2.30;;;24.60;48.30;;;;;;4976525;28;20457;-79
2022/03/28 02:07:08;;;;;;;2.57;2.37;;;24.60;48.30;;;;;;4977789;28;20487;-79
2022/03/28 02:09:35;;;;;;;2.50;2.30;;;24.60;48.30;;;;;;4976327;28;20517;-79
2022/03/28 02:12:01;;;;;;;2.40;2.20;;;24.60;48.30;;;;;;4976339;28;20460;-79
2022/03/28 02:14:29;;;;;;;2.53;2.33;;;24.60;48.30;;;;;;4976301;28;20780;-79
2022/03/28 02:16:56;;;;;;;3.03;2.83;;;24.70;48.30;;;;;;4976265;28;20445;-79
2022/03/28 02:19:23;;;;;;;2.80;2.60;;;24.50;48.20;;;;;;4976103;28;20944;-79
2022/03/28 02:21:50;;;;;;;2.50;2.30;;;24.50;48.20;;;;;;4975943;28;20492;-79
2022/03/28 02:24:17;;;;;;;2.20;2.10;;;24.70;48.30;;;;;;4976174;28;20446;-79
2022/03/28 02:26:44;;;;;;;2.53;2.33;;;24.50;48.20;;;;;;4976115;28;20817;-79
2022/03/28 02:29:10;;;;;;;2.13;2.03;;;24.50;48.20;;;;;;4975937;28;20441;-79
2022/03/28 02:31:38;;;;;;;1.93;1.83;;;24.50;48.20;;;;;;4975891;28;20809;-78
2022/03/28 02:34:05;;;;;;;2.73;2.53;;;24.70;48.40;;;;;;4975842;28;20442;-79
2022/03/28 02:36:32;;;;;;;2.33;2.23;;;24.60;48.30;;;;;;4975346;28;20489;-78
2022/03/28 02:38:59;;;;;;;2.53;2.33;;;24.50;48.20;;;;;;4975847;28;20445;-84
2022/03/28 02:41:25;;;;;;;2.77;2.57;;;24.50;48.20;;;;;;4975364;28;20485;-80
2022/03/28 02:43:52;;;;;;;2.70;2.50;;;24.50;48.20;;;;;;4975713;28;20457;-79
2022/03/28 02:46:19;;;;;;;2.83;2.63;;;24.50;48.20;;;;;;4975747;28;20817;-80
2022/03/28 02:48:47;;;;;;;2.77;2.57;;;24.50;48.20;;;;;;4975797;28;20453;-79
2022/03/28 02:51:14;;;;;;;2.80;2.60;;;24.50;48.10;;;;;;4975770;28;20468;-79
2022/03/28 02:53:41;;;;;;;2.67;2.47;;;24.70;48.30;;;;;;4975669;28;20441;-80
2022/03/28 02:56:07;;;;;;;2.47;2.27;;;24.50;48.20;;;;;;4975515;28;20441;-79
2022/03/28 02:58:34;;;;;;;2.50;2.30;;;24.60;48.20;;;;;;4975494;28;20448;-79
2022/03/28 03:01:01;;;;;;;2.73;2.53;;;24.50;48.10;;;;;;4975276;28;20495;-83
2022/03/28 03:03:27;;;;;;;2.30;2.10;;;24.50;48.10;;;;;;4975100;28;20456;-80
2022/03/28 03:05:56;;;;;;;2.70;2.50;;;24.70;48.30;;;;;;4975417;28;20442;-80
2022/03/28 03:08:22;;;;;;;2.10;2.00;;;24.50;48.00;;;;;;4974794;28;20445;-80
2022/03/28 03:10:49;;;;;;;2.70;2.50;;;24.50;48.10;;;;;;4975282;28;20453;-80
2022/03/28 03:13:16;;;;;;;2.60;2.40;;;24.50;48.10;;;;;;4975465;28;20545;-79
2022/03/28 03:15:43;;;;;;;2.90;2.70;;;24.50;48.10;;;;;;4975183;28;20437;-78
2022/03/28 03:18:09;;;;;;;2.47;2.27;;;24.50;48.10;;;;;;4975739;28;20461;-78
2022/03/28 03:20:36;;;;;;;2.20;2.10;;;24.50;48.10;;;;;;4975448;28;20477;-78
2022/03/28 03:23:05;;;;;;;2.83;2.63;;;24.50;48.10;;;;;;4975110;28;20444;-79
2022/03/28 03:25:31;;;;;;;2.30;2.10;;;24.50;48.10;;;;;;4975083;28;20449;-80
2022/03/28 03:27:58;;;;;;;2.47;2.33;;;24.50;48.00;;;;;;4974926;28;20441;-79
2022/03/28 03:30:25;;;;;;;2.63;2.43;;;24.50;48.00;;;;;;4975038;28;20437;-79
2022/03/28 03:32:53;;;;;;;2.47;2.27;;;24.50;48.00;;;;;;4974990;28;20448;-88
2022/03/28 03:35:21;;;;;;;3.70;2.50;;;24.50;48.00;;;;;;4974642;28;20477;-79
2022/03/28 03:37:47;;;;;;;2.80;2.60;;;24.40;48.00;;;;;;4975033;28;20949;-79
2022/03/28 03:40:15;;;;;;;2.80;2.60;;;24.50;48.00;;;;;;4974919;28;20442;-79
2022/03/28 03:42:42;;;;;;;2.60;2.40;;;24.40;48.00;;;;;;4974954;28;20500;-79
2022/03/28 03:45:10;;;;;;;2.67;2.47;;;24.40;47.90;;;;;;4974798;28;20452;-79
2022/03/28 03:47:37;;;;;;;2.90;2.70;;;24.50;48.00;;;;;;4974813;28;20449;-79
2022/03/28 03:50:05;;;;;;;3.10;2.87;;;24.40;47.90;;;;;;4974812;28;20445;-80
2022/03/28 03:52:32;;;;;;;2.40;2.20;;;24.40;47.90;;;;;;4974744;28;20446;-79
2022/03/28 03:54:58;;;;;;;2.70;2.50;;;24.40;47.90;;;;;;4974843;28;20452;-86
2022/03/28 03:57:27;;;;;;;2.77;2.57;;;24.40;47.90;;;;;;4974724;28;20774;-79
2022/03/28 03:59:54;;;;;;;3.23;3.00;;;24.40;47.90;;;;;;4974832;28;20456;-79
2022/03/28 04:02:21;;;;;;;2.33;2.23;;;24.50;48.00;;;;;;4974560;28;20984;-81
2022/03/28 04:04:47;;;;;;;3.20;2.80;;;24.40;47.90;;;;;;4974554;28;20450;-79
2022/03/28 04:07:14;;;;;;;2.50;2.30;;;24.40;47.90;;;;;;4974417;28;20937;-80
2022/03/28 04:09:41;;;;;;;2.80;2.60;;;24.40;47.90;;;;;;4974576;28;20441;-87
2022/03/28 04:12:09;;;;;;;2.50;2.30;;;24.40;47.90;;;;;;4975167;28;20441;-78
2022/03/28 04:14:37;;;;;;;2.53;2.33;;;24.40;47.90;;;;;;4974496;28;20442;-79
2022/03/28 04:17:04;;;;;;;4.07;2.40;;;24.40;47.90;;;;;;4974553;28;20799;-90
2022/03/28 04:19:31;;;;;;;2.20;2.10;;;24.40;47.90;;;;;;4976170;28;20456;-83
2022/03/28 04:21:58;;;;;;;2.30;2.20;;;24.40;47.90;;;;;;4978562;28;20492;-79
2022/03/28 04:24:25;;;;;;;2.57;2.37;;;24.40;47.90;;;;;;4980182;28;20442;-89
2022/03/28 04:26:52;;;;;;;2.70;2.50;;;24.40;47.90;;;;;;4980798;28;20940;-79
2022/03/28 04:29:18;;;;;;;2.53;2.33;;;24.40;47.90;;;;;;4981459;28;20818;-78
2022/03/28 04:31:46;;;;;;;2.13;2.03;;;24.40;47.90;;;;;;4978909;28;20445;-85
2022/03/28 04:34:13;;;;;;;2.37;2.17;;;24.40;47.90;;;;;;4978091;28;20437;-91
2022/03/28 04:36:40;;;;;;;2.67;2.47;;;24.40;47.90;;;;;;4977990;28;20473;-80
2022/03/28 04:39:07;;;;;;;2.80;2.60;;;24.40;47.90;;;;;;4978004;28;20456;-80
2022/03/28 04:41:33;;;;;;;2.83;2.63;;;24.40;47.90;;;;;;4977809;28;20492;-81
2022/03/28 04:44:00;;;;;;;3.03;2.47;;;24.40;47.90;;;;;;4978008;28;20449;-80
2022/03/28 04:46:27;;;;;;;3.17;2.97;;;24.40;47.80;;;;;;4978018;28;20794;-92
2022/03/28 04:48:55;;;;;;;4.47;3.40;;;24.40;47.90;;;;;;4977844;28;20445;-80
2022/03/28 04:51:22;;;;;;;2.87;2.67;;;24.40;48.10;;;;;;4977981;28;20452;-80
2022/03/28 04:53:48;;;;;;;2.93;2.60;;;24.40;47.80;;;;;;4978210;28;20437;-80
2022/03/28 04:56:15;;;;;;;3.53;2.63;;;24.40;47.80;;;;;;4978098;28;20626;-80
2022/03/28 04:58:42;;;;;;;2.60;2.40;;;24.40;47.80;;;;;;4977546;28;20944;-80
2022/03/28 05:01:09;;;;;;;2.10;2.00;;;24.40;47.80;;;;;;4977590;28;20517;-93
2022/03/28 05:03:36;;;;;;;3.20;3.00;;;24.40;47.80;;;;;;4977743;28;20481;-84
2022/03/28 05:06:04;;;;;;;2.90;2.70;;;24.40;47.80;;;;;;4977384;28;20917;-81
2022/03/28 05:08:31;;;;;;;3.10;2.47;;;24.30;47.80;;;;;;4977262;28;20449;-80
2022/03/28 05:10:57;;;;;;;3.17;2.97;;;24.30;47.80;;;;;;4977661;28;20441;-80
2022/03/28 05:13:25;;;;;;;2.90;2.70;;;24.30;47.80;;;;;;4977716;28;20472;-80
2022/03/28 05:15:52;;;;;;;3.40;3.10;;;24.30;47.70;;;;;;4977689;28;20449;-93
2022/03/28 05:18:19;;;;;;;2.83;2.43;;;24.30;47.70;;;;;;4977449;28;20445;-94
2022/03/28 05:20:46;;;;;;;2.50;2.40;;;24.30;47.70;;;;;;4977697;28;20446;-80
2022/03/28 05:23:14;;;;;;;3.17;2.80;;;24.30;47.70;;;;;;4977773;28;20532;-80
2022/03/28 05:25:41;;;;;;;3.50;3.20;;;24.30;47.70;;;;;;4978363;28;20453;-80
2022/03/28 05:28:08;;;;;;;2.80;2.60;;;24.40;47.70;;;;;;4977266;28;20445;-80
2022/03/28 05:30:34;;;;;;;2.53;2.37;;;24.40;47.70;;;;;;4976800;28;20448;-80
2022/03/28 05:33:02;;;;;;;2.70;2.50;;;24.30;47.70;;;;;;4977144;28;20450;-80
2022/03/28 05:35:29;;;;;;;3.07;2.87;;;24.40;47.70;;;;;;4976991;28;20483;-80
2022/03/28 05:37:56;;;;;;;2.77;2.50;;;24.30;47.60;;;;;;4977210;28;20449;-80
2022/03/28 05:40:24;;;;;;;3.40;2.70;;;24.30;47.70;;;;;;4976915;28;20454;-80
2022/03/28 05:42:51;;;;;;;2.60;2.50;;;24.30;47.70;;;;;;4977832;28;20496;-78
2022/03/28 05:45:18;;;;;;;2.93;2.73;;;24.30;47.60;;;;;;4977140;28;20449;-91
2022/03/28 05:47:45;;;;;;;2.90;2.70;;;24.30;47.60;;;;;;4976915;28;20445;-80
2022/03/28 05:50:11;;;;;;;3.30;3.10;;;24.30;47.60;;;;;;4976802;28;20442;-80
2022/03/28 05:52:38;;;;;;;4.17;2.97;;;24.40;47.60;;;;;;4977083;28;20449;-80
2022/03/28 05:55:06;;;;;;;3.00;2.80;;;24.40;47.70;;;;;;4977057;28;20446;-81
2022/03/28 05:57:35;;;;;;;11.43;5.10;;;24.30;47.60;;;;;;4976594;28;20448;-85
2022/03/28 06:00:04;;;;;;;4.47;4.17;;;24.30;47.50;;;;;;4976596;28;20450;-80
2022/03/28 06:02:31;;;;;;;4.70;3.60;;;24.20;47.70;;;;;;4977060;28;20484;-90
2022/03/28 06:04:59;;;;;;;2.90;2.70;;;24.20;47.70;;;;;;4976947;28;20526;-91
2022/03/28 06:07:25;;;;;;;3.87;3.57;;;24.20;47.70;;;;;;4980601;28;20941;-80
2022/03/28 06:09:52;;;;;;;3.47;3.00;;;24.20;47.80;;;;;;4980848;28;20457;-92
2022/03/28 06:12:19;;;;;;;3.43;3.13;;;24.20;47.80;;;;;;4980148;28;20579;-92
2022/03/28 06:14:47;;;;;;;3.47;3.17;;;24.20;47.90;;;;;;4976804;28;20448;-80
2022/03/28 06:17:20;;;;;;;3.47;3.17;;;24.20;48.00;;;;;;4976540;28;20452;-81
2022/03/28 06:19:47;;;;;;;3.20;3.00;;;24.20;48.20;;;;;;4976318;28;20426;-80
2022/03/28 06:22:14;;;;;;;3.30;3.10;;;24.40;48.30;;;;;;4976238;28;20497;-80
2022/03/28 06:24:41;;;;;;;3.60;3.27;;;24.20;48.30;;;;;;4975945;28;20457;-80
2022/03/28 06:27:08;;;;;;;3.20;3.00;;;24.20;48.40;;;;;;4976182;28;20449;-81
2022/03/28 06:29:35;;;;;;;3.30;3.10;;;24.20;48.50;;;;;;4975844;28;20453;-81
2022/03/28 06:32:04;;;;;;;4.30;3.53;;;24.20;48.50;;;;;;4976258;28;20500;-80
2022/03/28 06:34:31;;;;;;;4.00;3.60;;;24.20;48.50;;;;;;4976153;28;20453;-80
2022/03/28 06:36:58;;;;;;;6.27;2.73;;;24.30;48.70;;;;;;4976298;28;20484;-80
2022/03/28 06:39:25;;;;;;;3.10;2.90;;;24.20;48.60;;;;;;4976067;28;20446;-79
2022/03/28 06:41:54;;;;;;;3.27;3.07;;;24.30;48.70;;;;;;4975955;28;20484;-91
2022/03/28 06:44:20;;;;;;;4.47;3.27;;;24.30;48.70;;;;;;4976430;28;20452;-80
2022/03/28 06:46:47;;;;;;;4.07;3.70;;;24.30;48.80;;;;;;4981528;28;20422;-83
2022/03/28 06:49:15;;;;;;;3.37;3.10;;;24.30;48.80;;;;;;4998646;28;20445;-80
2022/03/28 06:51:42;;;;;;;3.60;3.27;;;24.30;48.80;;;;;;4992995;28;20460;-86
2022/03/28 06:54:10;;;;;;;3.87;3.57;;;24.30;48.90;;;;;;4983954;28;20446;-79
2022/03/28 06:56:37;;;;;;;3.53;3.23;;;24.50;48.90;;;;;;4975828;28;20520;-84
2022/03/28 06:59:04;;;;;;;6.47;3.27;;;24.20;48.80;;;;;;4975668;28;20448;-79
2022/03/28 07:01:31;;;;;;;3.73;3.43;;;24.30;48.90;;;;;;4975619;28;20441;-79
2022/03/28 07:03:58;;;;;;;3.50;3.20;;;24.30;48.90;;;;;;4975494;28;20450;-91
2022/03/28 07:06:26;;;;;;;4.40;3.10;;;24.30;48.90;;;;;;4975492;28;20453;-91
2022/03/28 07:08:53;;;;;;;4.20;3.50;;;24.30;48.90;;;;;;4975391;28;20453;-80
2022/03/28 07:11:20;;;;;;;4.47;4.17;;;24.30;48.90;;;;;;4974855;28;20449;-85
2022/03/28 07:13:47;;;;;;;10.87;7.13;;;24.30;48.70;;;;;;4974781;28;20932;-84
2022/03/28 07:16:13;;;;;;;5.07;4.67;;;24.20;48.80;;;;;;4974875;28;20460;-85
2022/03/28 07:18:41;;;;;;;4.70;4.20;;;24.20;48.60;;;;;;4975058;28;20453;-82
2022/03/28 07:21:08;;;;;;;4.67;3.93;;;24.20;48.60;;;;;;4975096;28;20453;-83
2022/03/28 07:23:37;;;;;;;5.40;4.90;;;24.20;48.50;;;;;;4975084;28;21059;-83
2022/03/28 07:26:04;;;;;;;4.93;4.40;;;24.20;48.60;;;;;;4974628;28;20504;-85
2022/03/28 07:28:31;;;;;;;5.17;4.67;;;24.20;48.60;;;;;;4974914;28;20446;-76
2022/03/28 07:30:57;;;;;;;5.67;4.60;;;24.20;48.60;;;;;;4974939;28;20441;-76
2022/03/28 07:33:25;;;;;;;5.00;4.30;;;24.20;48.70;;;;;;4975076;28;20445;-78
2022/03/28 07:35:52;;;;;;;5.03;4.60;;;24.20;48.70;;;;;;4974564;28;20516;-76
2022/03/28 07:38:19;;;;;;;4.13;3.83;;;24.20;48.70;;;;;;4974717;28;20450;-91
2022/03/28 07:40:47;;;;;;;5.27;4.77;;;24.20;48.70;;;;;;4974841;28;20520;-80
2022/03/28 07:43:15;;;;;;;5.10;4.70;;;24.50;48.70;;;;;;4974751;28;20493;-82
2022/03/28 07:45:43;;;;;;;4.00;3.70;;;24.30;48.60;;;;;;4974686;28;20453;-91
2022/03/28 07:48:10;;;;;;;4.17;3.87;;;24.30;48.40;;;;;;4974542;28;20963;-78
2022/03/28 07:50:36;;;;;;;5.03;4.20;;;24.30;48.40;;;;;;4975112;28;20445;-86
2022/03/28 07:53:05;;;;;;;6.17;4.47;;;24.40;48.60;;;;;;4975829;28;20445;-81
2022/03/28 07:55:32;;;;;;;3.90;3.60;;;24.40;48.60;;;;;;4978881;28;20437;-90
2022/03/28 07:58:02;;;;;;;7.57;3.80;;;24.40;48.40;;;;;;4978914;28;20445;-80
2022/03/28 08:00:30;;;;;;;4.37;3.97;;;24.40;48.30;;;;;;4978821;28;20795;-81
2022/03/28 08:02:57;;;;;;;3.70;3.33;;;24.40;48.30;;;;;;4978742;28;20496;-90
2022/03/28 08:05:25;;;;;;;7.07;4.17;;;24.50;48.40;;;;;;4978773;28;20456;-83
2022/03/28 08:07:52;;;;;;;3.63;3.10;;;24.50;48.30;;;;;;4978682;28;20449;-90
2022/03/28 08:13:42;;;;;;;3.93;3.63;;;24.60;48.40;;;;;;4978497;28;20397;-81
2022/03/28 08:16:09;;;;;;;4.07;3.67;;;24.50;48.50;;;;;;4978469;28;20449;-90
2022/03/28 08:18:38;;;;;;;6.13;4.43;;;24.50;48.40;;;;;;4978456;28;20452;-88
2022/03/28 08:21:05;;;;;;;4.23;3.93;;;24.60;48.60;;;;;;4978474;28;20445;-81
2022/03/28 08:23:32;;;;;;;4.43;3.30;;;24.60;48.60;;;;;;4978338;28;20547;-81
2022/03/28 08:25:59;;;;;;;4.07;3.63;;;24.60;48.60;;;;;;4978355;28;20533;-81
2022/03/28 08:28:26;;;;;;;4.10;3.77;;;24.70;48.70;;;;;;4978269;28;20445;-81
2022/03/28 08:30:55;;;;;;;4.30;3.93;;;24.70;48.70;;;;;;4977974;28;20980;-81
2022/03/28 08:33:22;;;;;;;4.40;3.40;;;24.70;48.80;;;;;;4978223;28;20453;-81
2022/03/28 08:35:48;;;;;;;4.23;3.83;;;24.70;48.80;;;;;;4977804;28;20485;-85
2022/03/28 08:38:15;;;;;;;4.03;3.57;;;24.70;48.80;;;;;;4978195;28;20444;-81
2022/03/28 08:40:42;;;;;;;4.20;3.80;;;24.80;48.90;;;;;;4977880;28;20481;-81
2022/03/28 08:43:09;;;;;;;3.47;3.27;;;24.80;48.80;;;;;;4977995;28;20491;-90
2022/03/28 08:45:37;;;;;;;4.07;3.57;;;24.70;48.80;;;;;;4978535;28;20445;-89
2022/03/28 08:48:07;;;;;;;3.70;3.40;;;25.00;49.10;;;;;;4977734;28;20449;-81
2022/03/28 08:50:35;;;;;;;4.80;3.83;;;24.80;48.90;;;;;;4977940;28;20846;-82
2022/03/28 08:53:04;;;;;;;4.37;3.53;;;24.80;49.00;;;;;;4977684;28;20959;-83
2022/03/28 08:55:31;;;;;;;4.00;3.60;;;24.90;49.00;;;;;;4977825;28;20445;-81
2022/03/28 08:57:57;;;;;;;3.33;3.03;;;24.90;49.10;;;;;;4977882;28;20448;-81
2022/03/28 09:00:24;;;;;;;3.93;3.60;;;24.90;49.10;;;;;;4977925;28;20955;-83
2022/03/28 09:02:55;;;;;;;8.13;6.10;;;25.00;49.20;;;;;;4977923;28;20485;-90
2022/03/28 09:05:30;;;;;;;6.50;5.77;;;24.90;49.20;;;;;;4977571;28;20434;-86
2022/03/28 09:07:58;;;;;;;5.47;4.97;;;24.90;49.10;;;;;;4977392;28;20433;-77
2022/03/28 09:13:47;;;;;;;5.13;4.73;;;24.90;49.20;;;;;;4977210;28;20413;-83
2022/03/28 09:16:20;;;;;;;5.27;4.77;;;24.80;49.40;;;;;;4977111;28;20480;-78
2022/03/28 09:18:47;;;;;;;6.17;5.57;;;24.90;49.40;;;;;;4977259;28;20506;-78
2022/03/28 09:21:16;;;;;;;6.53;5.83;;;24.90;49.50;;;;;;4977165;28;20449;-85
2022/03/28 09:23:44;;;;;;;6.47;5.90;;;25.00;49.50;;;;;;4978001;28;20890;-78
2022/03/28 09:26:16;;;;;;;7.70;6.90;;;24.90;49.60;;;;;;4976872;28;20941;-80
2022/03/28 09:28:48;;;;;;;10.50;8.80;;;24.90;49.60;;;;;;4979941;28;20956;-80
2022/03/28 09:31:20;;;;;;;11.47;9.17;;;25.00;49.80;;;;;;4977759;28;20797;-88
2022/03/28 09:34:01;;;;;;;13.70;9.40;;;25.00;50.00;;;;;;4977288;28;20445;-84
2022/03/28 09:36:50;;;;;;;10.67;9.00;;;24.90;49.70;;;;;;4976833;28;20484;-89
2022/03/28 09:39:22;;;;;;;11.33;9.10;;;24.90;50.00;;;;;;4977200;28;20441;-87
2022/03/28 09:42:00;;;;;;;9.53;8.30;;;24.80;50.20;;;;;;4976851;28;20440;-82
2022/03/28 09:44:39;;;;;;;8.90;8.10;;;24.90;50.40;;;;;;4976871;28;20504;-90
2022/03/28 09:47:08;;;;;;;12.27;10.37;;;24.80;50.40;;;;;;4977007;28;20437;-85
2022/03/28 09:49:35;;;;;;;11.70;9.30;;;24.80;50.80;;;;;;4976726;28;20477;-87
2022/03/28 09:52:06;;;;;;;11.00;8.43;;;24.80;50.70;;;;;;4976900;28;20446;-80
2022/03/28 09:54:45;;;;;;;12.63;9.10;;;24.80;50.40;;;;;;4980488;28;20468;-83
2022/03/28 09:57:13;;;;;;;9.70;8.70;;;24.90;50.30;;;;;;4978462;28;20460;-80
2022/03/28 09:59:40;;;;;;;12.13;7.90;;;24.80;50.20;;;;;;4976748;28;20442;-80
2022/03/28 10:02:18;;;;;;;9.47;8.57;;;24.80;50.30;;;;;;4976666;28;20541;-80
2022/03/28 10:04:47;;;;;;;18.20;11.37;;;24.90;50.40;;;;;;4976552;28;20555;-80
2022/03/28 10:07:15;;;;;;;19.53;13.77;;;24.80;50.60;;;;;;4976584;28;20445;-83
2022/03/28 10:14:57;;;;;;;17.80;9.60;;;24.80;50.80;;;;;;3185599;26;20493;-84
2022/03/28 10:17:25;;;;;;;15.50;10.30;;;24.90;50.90;;;;;;5019272;28;20944;-78
2022/03/28 10:19:52;;;;;;;9.57;8.47;;;24.90;51.00;;;;;;5033664;28;20446;-79
2022/03/28 10:22:25;;;;;;;13.43;8.57;;;24.90;51.00;;;;;;5032935;28;20446;-79
2022/03/28 10:24:53;;;;;;;11.93;8.87;;;24.90;51.20;;;;;;5033055;28;20475;-78
2022/03/28 10:27:20;;;;;;;9.47;7.93;;;24.90;51.30;;;;;;5034340;28;20439;-79
2022/03/28 10:29:47;;;;;;;10.90;8.30;;;24.90;51.40;;;;;;5034058;28;20458;-78
2022/03/28 10:32:16;;;;;;;17.33;10.90;;;25.00;51.60;;;;;;5033590;28;20796;-80
2022/03/28 10:34:46;;;;;;;11.10;7.77;;;25.00;51.70;;;;;;5033619;28;20450;-82
2022/03/28 10:37:35;;;;;;;10.60;5.80;;;25.00;51.80;;;;;;5034644;28;20529;-81
2022/03/28 10:40:24;;;;;;;10.80;7.07;;;24.90;51.10;;;;;;5034093;28;20435;-81
2022/03/28 10:46:15;;;;;;;6.50;5.90;;;24.80;50.70;;;;;;5054648;28;20429;-81
2022/03/28 10:48:44;;;;;;;7.57;6.47;;;24.80;50.80;;;;;;5055745;28;20434;-88
2022/03/28 10:51:13;;;;;;;8.70;6.63;;;24.80;50.90;;;;;;5056334;28;20445;-80
2022/03/28 10:53:43;;;;;;;9.90;6.40;;;24.80;50.90;;;;;;5054929;28;20445;-80
2022/03/28 10:56:16;;;;;;;9.73;6.27;;;24.80;50.90;;;;;;5054856;28;20454;-81
2022/03/28 10:58:45;;;;;;;9.53;6.97;;;24.80;51.00;;;;;;5054410;28;20442;-80
2022/03/28 11:01:30;;;;;;;7.10;6.40;;;24.80;51.00;;;;;;5052186;28;20469;-81
2022/03/28 11:04:31;;;;;;;11.23;7.47;;;25.00;51.20;;;;;;5033715;28;20490;-84
2022/03/28 11:07:04;;;;;;;9.67;6.67;;;24.80;51.00;;;;;;5033859;28;20474;-89
2022/03/28 11:09:50;;;;;;;8.90;6.50;;;24.80;51.20;;;;;;5034018;28;20496;-83
2022/03/28 11:12:22;;;;;;;8.60;6.40;;;24.80;51.20;;;;;;5033863;28;20462;-83
2022/03/28 11:15:38;;;;;;;6.60;5.90;;;24.80;51.10;;;;;;5033499;28;20536;-87
2022/03/28 11:18:09;;;;;;;6.17;5.53;;;24.80;51.10;;;;;;5035006;28;20474;-88
2022/03/28 11:20:45;;;;;;;7.50;5.83;;;24.70;51.10;;;;;;5040268;28;20530;-89
2022/03/28 11:23:13;;;;;;;7.50;6.47;;;24.80;51.20;;;;;;5053763;28;20473;-83
2022/03/28 11:25:44;;;;;;;8.03;6.10;;;24.80;51.10;;;;;;5053883;28;20441;-83
2022/03/28 11:28:16;;;;;;;7.57;5.70;;;24.80;51.10;;;;;;5053929;28;20426;-89
2022/03/28 11:31:06;;;;;;;7.37;5.37;;;24.80;51.10;;;;;;5053866;28;20449;-83
2022/03/28 11:33:38;;;;;;;6.80;6.10;;;24.80;51.10;;;;;;5048564;28;20996;-84
2022/03/28 11:36:07;;;;;;;6.87;6.23;;;24.70;51.00;;;;;;5053679;28;20434;-89
2022/03/28 11:38:37;;;;;;;6.77;6.13;;;24.70;51.00;;;;;;5053985;28;20469;-83
2022/03/28 11:41:12;;;;;;;7.13;6.03;;;24.70;51.00;;;;;;5054039;28;20806;-84
2022/03/28 11:43:40;;;;;;;6.40;5.70;;;24.80;51.00;;;;;;5053528;28;20542;-90
2022/03/28 11:46:13;;;;;;;6.50;5.70;;;24.70;51.00;;;;;;5053471;28;20477;-91
2022/03/28 11:48:51;;;;;;;9.60;6.20;;;24.80;51.10;;;;;;5053835;28;20503;-84
2022/03/28 11:51:18;;;;;;;8.20;5.70;;;24.80;51.00;;;;;;5053731;28;20441;-84
2022/03/28 11:53:45;;;;;;;6.83;6.07;;;24.70;51.00;;;;;;5053777;28;20442;-90
2022/03/28 11:56:22;;;;;;;6.53;5.93;;;24.70;51.10;;;;;;5053614;28;20438;-84
2022/03/28 11:58:49;;;;;;;7.33;5.90;;;24.80;51.20;;;;;;5053617;28;20441;-89
2022/03/28 12:01:17;;;;;;;6.37;5.43;;;24.80;51.20;;;;;;5053715;28;20433;-83
2022/03/28 12:03:48;;;;;;;7.77;6.40;;;24.80;51.10;;;;;;5053800;28;20489;-84
2022/03/28 12:06:26;;;;;;;6.47;5.77;;;24.80;51.20;;;;;;5053517;28;20438;-90
2022/03/28 12:08:53;;;;;;;7.00;6.30;;;24.80;51.10;;;;;;5053614;28;20473;-84
2022/03/28 12:11:22;;;;;;;9.70;5.83;;;24.80;51.20;;;;;;5053490;28;20520;-84
2022/03/28 12:13:49;;;;;;;6.07;5.50;;;24.80;51.20;;;;;;5053208;28;20955;-88
2022/03/28 12:16:16;;;;;;;6.60;6.00;;;24.80;51.20;;;;;;5053926;28;20871;-86
2022/03/28 12:18:44;;;;;;;7.57;6.40;;;24.80;51.20;;;;;;5048402;28;20441;-85
2022/03/28 12:21:11;;;;;;;8.30;6.17;;;24.80;51.30;;;;;;5044393;28;20450;-88
2022/03/28 12:23:38;;;;;;;7.80;7.07;;;24.80;51.20;;;;;;5038272;28;20473;-87
2022/03/28 12:26:05;;;;;;;9.30;7.40;;;24.90;51.40;;;;;;5033356;28;20446;-80
2022/03/28 12:28:36;;;;;;;8.40;7.60;;;24.90;51.60;;;;;;5031265;28;20496;-80
2022/03/28 12:31:05;;;;;;;8.90;7.40;;;24.90;51.60;;;;;;5031428;28;20434;-80
2022/03/28 12:33:33;;;;;;;12.60;7.37;;;25.00;51.60;;;;;;5032389;28;20932;-80
2022/03/28 12:36:03;;;;;;;11.63;7.47;;;25.00;51.70;;;;;;5032338;28;20447;-80
2022/03/28 12:38:31;;;;;;;8.67;7.00;;;25.20;51.80;;;;;;5032492;28;20453;-80
2022/03/28 12:41:00;;;;;;;9.23;7.10;;;25.00;51.70;;;;;;5034992;28;20438;-80
2022/03/28 12:43:28;;;;;;;11.10;7.10;;;25.00;51.70;;;;;;5036346;28;20852;-80
2022/03/28 12:45:58;;;;;;;12.20;8.00;;;25.00;51.70;;;;;;5036516;28;20917;-80
2022/03/28 12:48:37;;;;;;;10.70;7.40;;;25.10;51.90;;;;;;5036469;28;20443;-80
2022/03/28 12:51:05;;;;;;;8.03;7.23;;;25.10;51.90;;;;;;5036324;28;20442;-80
2022/03/28 12:53:33;;;;;;;13.63;8.53;;;25.10;51.90;;;;;;5036390;28;20446;-80
2022/03/28 12:56:13;;;;;;;8.80;7.40;;;25.10;51.90;;;;;;5036237;28;20446;-87
2022/03/28 12:58:41;;;;;;;8.10;6.30;;;25.30;52.00;;;;;;5036329;28;20454;-92
2022/03/28 13:01:10;;;;;;;10.97;5.50;;;25.20;51.70;;;;;;5036531;28;20450;-81
2022/03/28 13:03:38;;;;;;;8.33;6.53;;;25.20;51.60;;;;;;5036293;28;20984;-92
2022/03/28 13:06:07;;;;;;;12.70;6.97;;;25.20;51.70;;;;;;5036278;28;20453;-81
2022/03/28 13:08:35;;;;;;;7.97;6.80;;;25.20;51.60;;;;;;5036590;28;20454;-81
2022/03/28 13:11:18;;;;;;;8.87;6.37;;;25.20;51.60;;;;;;5036320;28;20478;-82
2022/03/28 13:13:46;;;;;;;10.60;7.87;;;25.20;51.50;;;;;;5036015;28;20500;-81